Hauptseite
METAR-TAF:

METAR-TAF

Flughäfen :

Andora, Italien

Capo Mele

Breite: 43-57N, Länge: 008-10E, Höhe: 220 m

Beobachtung

Neuester Wetterbericht von vor 31 Minuten, um 10:55 UTC
Wind 4 kt aus Ost/Nordost
Temperatur 16°C
Luftfeuchtigkeit 77%
Luftdruck 1020 hPa
Sichtweite 10 km oder mehr
Leicht bewölkt in der Höhe von 1600 ft, Towering cumulus.

METAR: LIMU 231055Z 06004KT 9999 FEW016TCU 16/12 Q1020 RMK SCT QUK 1 QUL 1 SE VIS MAR 25 KM VIS MIN 9999

Zeit: 12:26 (11:26 UTC)


TAF: fehlend

Wetterbeobachtungen und Prognosen von mehr als 4000 Flughäfen (METAR und TAF Bericht).

Die verfügbaren Stationen werden durch gelbe und rote Markierungen auf der Karte dargestellt.

Führen Sie die Maus auf sie, um den Namen der Station zu sehen.

Darauf klicken, um die Beobachtung von Wetterbeobachtungen und Prognosen zu sehen.

Um die Karte zu ändern : klicken Sie auf den grünen Tasten mit einem schwarzen Kreuz Zum Vergrößern, auf den grünen Button mit einem Gedankenstrich zu verkleinern, oder auf die grünen Pfeile für benachbarte Karten.


METAR-TAF: